ADDS METAR Data INFO
IDs: Format: Raw Decoded Include TAF

Data at: 0220 UTC 18 Jan 2018

KFXE 180153Z 31008KT 10SM CLR 17/10 A3021 RMK AO2 SLP231 T01720100
KFXE 180053Z 00000KT 10SM CLR 18/10 A3019 RMK AO2 SLP227 T01780100
KFXE 172353Z 32005KT 10SM CLR 18/09 A3018 RMK AO2 SLP220 T01830094 10222 20183 51006
KFXE 172253Z 33004KT 10SM BKN100 19/09 A3017 RMK AO2 SLP219 T01890089
KFXE 172153Z 34005KT 10SM BKN080 20/11 A3017 RMK AO2 SLP217 T02000106
KFXE 172053Z 32009KT 10SM CLR 20/08 A3016 RMK AO2 SLP214 T02000083 55006
KFXE 171953Z 32006KT 10SM CLR 21/10 A3014 RMK AO2 SLP210 T02110100
KFXE 171853Z 31007KT 10SM CLR 22/13 A3015 RMK AO2 SLP213 T02220128
KFXE 171753Z 33009KT 10SM CLR 21/12 A3017 RMK AO2 SLP220 T02110122 10217 20150 58023
KFXE 171653Z 33007KT 10SM FEW030 21/13 A3022 RMK AO2 SLP234 T02060128
KFXE 171553Z COR 33007KT 10SM FEW030 BKN080 19/12 A3024 RMK AO2 SLP241 T01940117
KFXE 171453Z 32006KT 10SM SCT040 18/12 A3024 RMK AO2 SLP243 T01830122 51017
KFXE 171353Z 33009KT 10SM SCT032 17/13 A3022 RMK AO2 SLP237 T01670128
KFXE 171253Z 32005KT 10SM SCT031 16/12 A3021 RMK AO2 SLP232 T01560122 $
KFXE 171153Z 32005KT 10SM SCT110 16/12 A3019 RMK AO2 SLP226 T01560122 10167 20150 53005 $
KFXE 171053Z 34004KT 10SM OVC075 16/12 A3018 RMK AO2 SLP223 T01560122 $
KFXE 170953Z 33004KT 10SM FEW033 SCT075 16/12 A3018 RMK AO2 SLP222 T01560122 $
KFXE 170853Z COR 33006KT 10SM FEW034 16/13 A3018 RMK AO2 SLP221 T01560128 55009 $
KFXE 170753Z 33005KT 10SM CLR 16/13 A3017 RMK AO2 SLP218 T01560133 $
KFXE 170653Z 33004KT 10SM FEW120 17/13 A3019 RMK AO2 SLP226 T01670133 $
KFXE 170553Z COR 35005KT 10SM CLR 17/13 A3020 RMK AO2 SLP230 T01670128 10189 20167 58015 $
KFXE 170453Z 33007KT 10SM CLR 17/13 A3023 RMK AO2 SLP238 T01720128 402330150 $
KFXE 170353Z 34005KT 10SM SCT044 17/13 A3025 RMK AO2 SLP246 T01720128 $
KFXE 170253Z 34007KT 10SM SCT043 17/13 A3025 RMK AO2 SLP245 T01720133 51008 $
KFXE 170153Z 35005KT 10SM CLR 18/13 A3024 RMK AO2 SLP242 T01780128 $
KFXE 170053Z 34004KT 10SM CLR 18/11 A3024 RMK AO2 SLP242 T01830111 $
KFXE 162353Z 36003KT 10SM SCT030 19/11 A3022 RMK AO2 SLP237 T01890111 10233 20189 51005
KFXE 162253Z 01009KT 10SM SCT050 20/11 A3022 RMK AO2 SLP236 T02000106
KFXE 162153Z 03009G15KT 10SM SCT047 21/11 A3022 RMK AO2 SLP234 T02110111
KFXE 162053Z 03009KT 10SM SCT030 SCT050 22/11 A3021 RMK AO2 SLP232 T02170111 56016
KFXE 161953Z 04010G18KT 10SM SCT049 23/12 A3021 RMK AO2 SLP232 T02280117
KFXE 161853Z 05007G18KT 10SM SCT046 23/12 A3022 RMK AO2 SLP236 T02330117
KFXE 161753Z 04012G17KT 10SM SCT045 22/12 A3026 RMK AO2 SLP248 T02220117 10233 20150 58018
KFXE 161653Z 05011G17KT 10SM SCT050 23/12 A3028 RMK AO2 SLP257 T02280122
KFXE 161553Z 05007KT 10SM SCT040 SCT050 21/13 A3031 RMK AO2 SLP267 T02110128
KFXE 161453Z 05005KT 10SM SCT025 20/12 A3031 RMK AO2 SLP266 T02000122 51017